Terminal Aerodrome Forecast
Issued by NWS Louisville, KY

Home | Current Version | Previous Version | Text Only | Print | Product List | Glossary On
Versions: 1 2 3 4 5 6 7 8 9 10 11 12 13 14
209
FTUS43 KLMK 201356 AAA
TAFLEX
TAF AMD
KLEX 201356Z 2014/2112 13007KT P6SM SCT008
     FM201600 13007KT P6SM BKN250=

USA.gov is the U.S. government's official web portal to all federal, state and local government web resources and services.